CYZF 250800Z 15005KT 15SM SKC M06/M08 A2996 RMK SLP163